Time;durP1;ratioP1;P1;durP2;ratioP2;P2;SDS_P1;SDS_P2;PMS_P1;PMS_P2;Temp;Humidity;BMP_temperature;BMP_pressure;BME280_temperature;BME280_humidity;BME280_pressure;Samples;Min_cycle;Max_cycle;Signal;HPM_P1;HPM_P2
2022/05/01 00:01:24;;;;;;;13.70;11.50;;;6.40;1.00;;;;;;5078491;28;20457;-57
2022/05/01 00:03:55;;;;;;;13.70;12.30;;;6.30;1.00;;;;;;5077179;28;20504;-57
2022/05/01 00:06:24;;;;;;;13.47;11.63;;;6.30;1.00;;;;;;5078822;28;20889;-55
2022/05/01 00:08:58;;;;;;;16.07;12.07;;;6.20;1.00;;;;;;5078590;28;20461;-56
2022/05/01 00:11:31;;;;;;;14.67;12.20;;;6.20;1.00;;;;;;5078831;28;20464;-57
2022/05/01 00:14:03;;;;;;;13.07;11.50;;;6.20;1.00;;;;;;5077572;28;20500;-58
2022/05/01 00:16:32;;;;;;;15.40;11.97;;;6.10;1.00;;;;;;5077684;28;20497;-57
2022/05/01 00:19:08;;;;;;;16.63;13.33;;;6.10;1.00;;;;;;5078978;28;20490;-57
2022/05/01 00:21:49;;;;;;;14.50;11.67;;;6.00;1.00;;;;;;5078713;28;20807;-57
2022/05/01 00:24:24;;;;;;;13.33;12.03;;;6.10;1.00;;;;;;5070037;28;20829;-57
2022/05/01 00:27:02;;;;;;;17.83;12.30;;;6.00;1.00;;;;;;5077816;28;20498;-58
2022/05/01 00:29:31;;;;;;;14.80;13.23;;;6.00;1.00;;;;;;5078843;28;20435;-58
2022/05/01 00:31:58;;;;;;;13.73;12.20;;;5.90;1.00;;;;;;5077847;28;20465;-58
2022/05/01 00:37:11;;;;;;;13.30;11.87;;;5.90;1.00;;;;;;5077665;28;20535;-58
2022/05/01 00:39:40;;;;;;;14.97;12.77;;;5.90;1.00;;;;;;5078274;28;20640;-58
2022/05/01 00:42:08;;;;;;;13.33;11.63;;;5.80;1.00;;;;;;5078025;28;20497;-54
2022/05/01 00:44:39;;;;;;;14.63;13.10;;;5.70;1.00;;;;;;5077955;28;20498;-58
2022/05/01 00:47:06;;;;;;;13.63;11.73;;;5.70;1.00;;;;;;5078012;28;20757;-54
2022/05/01 00:49:33;;;;;;;17.23;12.50;;;5.70;1.00;;;;;;5077248;28;20757;-57
2022/05/01 00:52:12;;;;;;;13.13;11.73;;;5.60;1.00;;;;;;5077970;28;20501;-57
2022/05/01 00:54:58;;;;;;;14.27;12.30;;;5.60;1.00;;;;;;5078146;28;20511;-57
2022/05/01 00:57:29;;;;;;;15.30;12.80;;;5.50;1.00;;;;;;5078164;28;20461;-56
2022/05/01 00:59:58;;;;;;;15.80;12.83;;;5.50;1.00;;;;;;5077248;28;20562;-57
2022/05/01 01:02:28;;;;;;;16.17;13.13;;;5.50;1.00;;;;;;5077169;28;20460;-57
2022/05/01 01:04:56;;;;;;;13.53;12.17;;;5.50;1.00;;;;;;5077384;28;20455;-57
2022/05/01 01:07:24;;;;;;;15.50;12.47;;;5.40;1.00;;;;;;5078006;28;20471;-57
2022/05/01 01:09:52;;;;;;;13.03;11.63;;;5.30;1.00;;;;;;5076603;28;20494;-57
2022/05/01 01:15:34;;;;;;;14.13;12.70;;;5.40;1.00;;;;;;5077575;28;20432;-57
2022/05/01 01:18:03;;;;;;;17.30;13.00;;;5.40;1.00;;;;;;5076950;28;20485;-56
2022/05/01 01:20:36;;;;;;;17.90;14.07;;;5.40;1.00;;;;;;5076268;28;20876;-57
2022/05/01 01:23:05;;;;;;;14.97;13.47;;;5.40;1.00;;;;;;5076768;28;20472;-58
2022/05/01 01:25:38;;;;;;;15.80;12.73;;;5.30;1.00;;;;;;5077324;28;20493;-58
2022/05/01 01:28:08;;;;;;;14.17;12.60;;;5.30;1.00;;;;;;5077733;28;20514;-57
2022/05/01 01:33:21;;;;;;;14.10;12.10;;;5.20;1.00;;;;;;5077250;28;20443;-58
2022/05/01 01:35:50;;;;;;;14.63;12.10;;;5.20;1.00;;;;;;5076773;28;20789;-58
2022/05/01 01:38:19;;;;;;;16.33;11.73;;;5.10;1.00;;;;;;5076566;28;20885;-58
2022/05/01 01:40:54;;;;;;;15.80;12.63;;;5.10;1.00;;;;;;5076827;28;20493;-58
2022/05/01 01:43:30;;;;;;;13.53;12.07;;;5.10;1.00;;;;;;5077331;28;20851;-57
2022/05/01 01:45:57;;;;;;;15.80;12.70;;;5.10;1.00;;;;;;5076977;28;20508;-58
2022/05/01 01:48:28;;;;;;;14.03;12.00;;;5.00;1.00;;;;;;5076807;28;20471;-57
2022/05/01 01:51:00;;;;;;;17.00;13.40;;;5.00;1.00;;;;;;5076599;28;20498;-57
2022/05/01 01:53:29;;;;;;;13.87;11.47;;;4.90;1.00;;;;;;5076905;28;20492;-58
2022/05/01 01:55:59;;;;;;;15.37;12.77;;;4.80;1.00;;;;;;5076807;28;20557;-58
2022/05/01 01:58:29;;;;;;;18.90;13.07;;;4.80;1.00;;;;;;5077684;28;20906;-57
2022/05/01 02:00:57;;;;;;;14.37;12.87;;;4.80;1.00;;;;;;5083180;28;20591;-57
2022/05/01 02:03:27;;;;;;;16.53;13.07;;;4.80;1.00;;;;;;5083580;28;20519;-57
2022/05/01 02:05:56;;;;;;;14.00;11.30;;;4.80;1.00;;;;;;5082583;28;20550;-57
2022/05/01 02:08:24;;;;;;;13.30;11.87;;;4.80;1.00;;;;;;5083358;28;20572;-58
2022/05/01 02:11:06;;;;;;;13.77;12.13;;;4.70;1.00;;;;;;5083252;28;20817;-57
2022/05/01 02:13:44;;;;;;;17.23;11.33;;;4.80;1.00;;;;;;5083892;28;20495;-57
2022/05/01 02:16:18;;;;;;;18.73;12.50;;;4.70;1.00;;;;;;5085630;28;20545;-57
2022/05/01 02:18:45;;;;;;;14.77;12.30;;;4.60;1.00;;;;;;5101774;28;20468;-58
2022/05/01 02:21:37;;;;;;;15.20;12.60;;;4.60;1.00;;;;;;5097927;28;20565;-57
2022/05/01 02:24:06;;;;;;;14.30;11.33;;;4.60;1.00;;;;;;5100721;28;20546;-56
2022/05/01 02:26:53;;;;;;;15.20;12.57;;;4.60;1.00;;;;;;5083174;28;20480;-57
2022/05/01 02:29:23;;;;;;;15.83;12.40;;;4.50;1.00;;;;;;5068219;28;20471;-57
2022/05/01 02:31:53;;;;;;;16.13;12.60;;;4.50;1.00;;;;;;5083496;28;20504;-57
2022/05/01 02:34:26;;;;;;;18.30;12.97;;;4.50;1.00;;;;;;5103771;28;20512;-57
2022/05/01 02:36:55;;;;;;;14.80;12.47;;;4.50;1.00;;;;;;5084258;28;20567;-56
2022/05/01 02:39:24;;;;;;;15.03;12.37;;;4.50;1.00;;;;;;5088178;28;20472;-57
2022/05/01 02:42:02;;;;;;;14.80;12.97;;;4.40;1.00;;;;;;5093892;28;20480;-57
2022/05/01 02:44:32;;;;;;;15.93;12.50;;;4.40;1.00;;;;;;5082782;28;20519;-57
2022/05/01 02:46:59;;;;;;;14.50;12.50;;;4.40;1.40;;;;;;5080538;28;20924;-57
2022/05/01 02:49:26;;;;;;;15.00;12.47;;;4.40;27.20;;;;;;5081859;28;20876;-57
2022/05/01 02:52:03;;;;;;;18.13;13.00;;;4.40;80.80;;;;;;5090489;28;20530;-57
2022/05/01 02:54:35;;;;;;;14.50;11.80;;;4.40;99.90;;;;;;5080922;28;21432;-57
2022/05/01 02:57:07;;;;;;;14.03;12.53;;;4.40;99.90;;;;;;5078117;28;20476;-57
2022/05/01 02:59:34;;;;;;;15.03;13.43;;;4.50;99.90;;;;;;5081030;28;20477;-57
2022/05/01 03:02:06;;;;;;;14.50;10.93;;;4.60;99.90;;;;;;5082700;28;20889;-56
2022/05/01 03:04:33;;;;;;;14.33;12.17;;;4.60;62.10;;;;;;5091366;28;20836;-56
2022/05/01 03:07:00;;;;;;;19.00;14.00;;;4.60;13.60;;;;;;5084042;28;20472;-54
2022/05/01 03:09:30;;;;;;;16.53;14.23;;;4.50;8.10;;;;;;5100700;28;20512;-56
2022/05/01 03:11:57;;;;;;;25.70;20.47;;;4.50;12.50;;;;;;5090455;28;20558;-57
2022/05/01 03:14:28;;;;;;;30.67;26.80;;;4.60;1.00;;;;;;5082049;28;20473;-56
2022/05/01 03:16:57;;;;;;;36.23;32.63;;;4.50;1.00;;;;;;5094746;28;20465;-56
2022/05/01 03:22:13;;;;;;;32.50;27.43;;;4.40;2.40;;;;;;5078069;28;20452;-56
2022/05/01 03:24:47;;;;;;;39.20;33.53;;;4.40;37.30;;;;;;5094899;28;20982;-56
2022/05/01 03:27:14;;;;;;;41.60;35.50;;;4.30;58.20;;;;;;5090679;28;20507;-56
2022/05/01 03:30:15;;;;;;;39.07;34.87;;;4.30;43.10;;;;;;5083391;28;20460;-57
2022/05/01 03:32:34;;;;;;;37.97;31.57;;;4.40;5.70;;;;;;5085489;28;20465;-56
2022/05/01 03:35:14;;;;;;;39.93;30.73;;;4.30;1.00;;;;;;5084388;28;20496;-57
2022/05/01 03:37:44;;;;;;;35.17;27.63;;;4.30;1.00;;;;;;5096279;28;20551;-55
2022/05/01 03:40:13;;;;;;;35.33;29.40;;;4.30;1.00;;;;;;5078183;28;20481;-57
2022/05/01 03:42:55;;;;;;;38.53;29.13;;;4.20;1.00;;;;;;5082570;28;20846;-58
2022/05/01 03:45:27;;;;;;;32.63;28.17;;;4.20;21.80;;;;;;5076063;28;20477;-57
2022/05/01 03:47:56;;;;;;;32.33;28.20;;;4.10;99.90;;;;;;5061335;28;20491;-58
2022/05/01 03:50:26;;;;;;;28.10;25.10;;;4.10;99.90;;;;;;5078526;28;20465;-56
2022/05/01 03:52:53;;;;;;;35.40;27.33;;;4.00;99.90;;;;;;5076557;28;20492;-57
2022/05/01 03:55:20;;;;;;;29.17;23.63;;;3.90;99.90;;;;;;5078183;28;20876;-57
2022/05/01 03:57:52;;;;;;;26.00;20.70;;;3.90;99.90;;;;;;5096965;28;20521;-57
2022/05/01 04:00:31;;;;;;;28.53;22.20;;;3.90;99.90;;;;;;5079668;28;20566;-58
2022/05/01 04:03:03;;;;;;;22.40;19.47;;;4.00;99.90;;;;;;5062008;28;20497;-57
2022/05/01 04:05:32;;;;;;;19.67;17.07;;;3.90;99.90;;;;;;5082399;28;20925;-58
2022/05/01 04:08:00;;;;;;;20.23;17.60;;;3.90;99.90;;;;;;5092444;28;20471;-57
2022/05/01 04:10:29;;;;;;;20.63;16.37;;;3.90;99.90;;;;;;5081686;28;20526;-57
2022/05/01 04:12:56;;;;;;;18.73;15.60;;;3.90;51.60;;;;;;5086877;28;20532;-54
2022/05/01 04:15:23;;;;;;;20.97;16.83;;;3.90;25.30;;;;;;5076443;28;20963;-57
2022/05/01 04:17:53;;;;;;;18.40;14.70;;;3.90;11.10;;;;;;5077131;28;20504;-57
2022/05/01 04:20:23;;;;;;;19.83;15.00;;;3.90;1.00;;;;;;5076293;28;20798;-56
2022/05/01 04:22:53;;;;;;;17.47;15.53;;;4.00;1.00;;;;;;5077729;28;20816;-57
2022/05/01 04:25:33;;;;;;;;;;;;;;;;;;;;;
2022/05/01 04:28:13;;;;;;;25.03;16.90;;;3.90;41.30;;;;;;5070765;28;20465;-57
2022/05/01 04:30:40;;;;;;;21.50;17.17;;;3.90;99.90;;;;;;5066710;28;20501;-56
2022/05/01 04:33:15;;;;;;;22.27;17.30;;;3.90;99.90;;;;;;5078736;28;20470;-57
2022/05/01 04:35:45;;;;;;;20.53;17.13;;;3.80;99.90;;;;;;5090099;28;20975;-57
2022/05/01 04:38:18;;;;;;;23.63;18.10;;;3.80;99.90;;;;;;5081494;28;20483;-57
2022/05/01 04:40:47;;;;;;;19.47;16.97;;;3.80;99.90;;;;;;5081402;28;20932;-57
2022/05/01 04:43:17;;;;;;;22.57;18.03;;;3.80;1.00;;;;;;5075631;28;20793;-58
2022/05/01 04:45:45;;;;;;;17.90;16.00;;;3.80;1.00;;;;;;5092379;28;20978;-57
2022/05/01 04:48:14;;;;;;;23.70;17.10;;;3.80;1.00;;;;;;5078153;28;20849;-57
2022/05/01 04:50:42;;;;;;;21.40;15.93;;;3.80;99.90;;;;;;5092461;28;20508;-57
2022/05/01 04:53:12;;;;;;;19.00;16.13;;;3.80;99.90;;;;;;5081583;28;20473;-55
2022/05/01 04:55:42;;;;;;;18.90;15.47;;;3.80;99.90;;;;;;5081176;28;20520;-57
2022/05/01 04:58:20;;;;;;;19.80;16.17;;;3.80;99.90;;;;;;5086529;28;20500;-57
2022/05/01 05:00:48;;;;;;;22.00;16.63;;;3.80;1.00;;;;;;5074017;28;20488;-58
2022/05/01 05:03:20;;;;;;;19.77;16.40;;;3.90;1.00;;;;;;5073076;28;20469;-57
2022/05/01 05:05:47;;;;;;;20.93;17.33;;;3.90;1.00;;;;;;5082995;28;20694;-56
2022/05/01 05:11:01;;;;;;;23.10;18.63;;;4.00;1.00;;;;;;5065312;28;20753;-58
2022/05/01 05:13:30;;;;;;;23.63;18.83;;;4.20;99.90;;;;;;5081780;28;20489;-57
2022/05/01 05:16:12;;;;;;;21.57;19.23;;;4.30;12.70;;;;;;5095843;28;20564;-57
2022/05/01 05:18:41;;;;;;;25.60;18.60;;;4.40;1.00;;;;;;5077526;28;20779;-57
2022/05/01 05:21:13;;;;;;;24.20;20.07;;;4.50;1.00;;;;;;5077758;28;20489;-57
2022/05/01 05:23:46;;;;;;;24.63;18.10;;;4.60;1.00;;;;;;5079092;28;20461;-55
2022/05/01 05:26:14;;;;;;;20.17;17.90;;;4.80;1.00;;;;;;5064142;28;20548;-56
2022/05/01 05:28:41;;;;;;;21.57;17.87;;;4.90;1.00;;;;;;5076614;28;20509;-57
2022/05/01 05:31:07;;;;;;;21.50;18.40;;;5.00;1.00;;;;;;5076945;28;20457;-57
2022/05/01 05:33:43;;;;;;;24.50;17.33;;;5.10;1.00;;;;;;5076711;28;20500;-57
2022/05/01 05:36:18;;;;;;;22.80;17.60;;;5.30;1.00;;;;;;5088684;28;20977;-57
2022/05/01 05:38:45;;;;;;;19.80;16.90;;;5.50;1.00;;;;;;5097544;28;20909;-57
2022/05/01 05:41:21;;;;;;;19.40;17.40;;;5.60;99.90;;;;;;5082225;28;20517;-56
2022/05/01 05:43:51;;;;;;;21.10;16.50;;;5.80;99.90;;;;;;5076889;28;20468;-57
2022/05/01 05:46:26;;;;;;;17.70;15.80;;;6.00;99.90;;;;;;5068139;28;20469;-58
2022/05/01 05:48:58;;;;;;;21.00;17.57;;;6.00;99.90;;;;;;5077304;28;20904;-57
2022/05/01 05:51:26;;;;;;;21.60;16.00;;;6.20;56.70;;;;;;5076871;28;20485;-57
2022/05/01 05:53:54;;;;;;;19.20;16.73;;;6.40;40.60;;;;;;5076462;28;20439;-56
2022/05/01 05:56:22;;;;;;;19.17;17.17;;;6.70;84.60;;;;;;5076679;28;20523;-58
2022/05/01 05:58:49;;;;;;;21.70;15.63;;;6.90;21.70;;;;;;5076969;28;20496;-58
2022/05/01 06:01:18;;;;;;;22.53;17.40;;;7.00;1.00;;;;;;5076447;28;20478;-57
2022/05/01 06:03:49;;;;;;;19.00;16.70;;;7.20;1.00;;;;;;5076409;28;20493;-58
2022/05/01 06:06:17;;;;;;;18.20;16.00;;;7.60;1.00;;;;;;5076704;28;20465;-56
2022/05/01 06:08:48;;;;;;;20.27;15.90;;;8.00;1.00;;;;;;5076866;28;20564;-57
2022/05/01 06:11:17;;;;;;;22.53;16.93;;;8.30;1.00;;;;;;5076678;28;20786;-57
2022/05/01 06:13:52;;;;;;;18.00;16.10;;;8.50;1.00;;;;;;5056394;28;20514;-57
2022/05/01 06:16:27;;;;;;;19.60;15.20;;;8.80;1.00;;;;;;5076055;28;20464;-58
2022/05/01 06:18:57;;;;;;;17.30;15.60;;;8.90;1.00;;;;;;5075725;28;20571;-56
2022/05/01 06:21:24;;;;;;;19.63;15.90;;;9.00;1.00;;;;;;5077438;28;20859;-57
2022/05/01 06:23:59;;;;;;;16.67;14.90;;;9.10;1.00;;;;;;5076960;28;20520;-57
2022/05/01 06:26:29;;;;;;;16.43;14.83;;;9.20;1.00;;;;;;5088255;28;20501;-57
2022/05/01 06:29:02;;;;;;;18.37;16.10;;;9.10;1.00;;;;;;5076284;28;20465;-57
2022/05/01 06:31:32;;;;;;;17.10;15.30;;;9.20;1.00;;;;;;5075629;28;20817;-57
2022/05/01 06:33:59;;;;;;;18.57;16.20;;;9.40;1.00;;;;;;5086990;28;20476;-56
2022/05/01 06:36:26;;;;;;;19.13;17.13;;;9.60;1.00;;;;;;5070782;28;20574;-58
2022/05/01 06:38:54;;;;;;;17.90;15.70;;;9.80;1.00;;;;;;5073566;28;20858;-58
2022/05/01 06:41:21;;;;;;;16.63;15.03;;;9.90;1.00;;;;;;5075457;28;20596;-58
2022/05/01 06:43:48;;;;;;;16.43;14.83;;;10.00;1.00;;;;;;5069550;28;20518;-58
2022/05/01 06:46:15;;;;;;;18.33;16.40;;;10.00;1.00;;;;;;5075914;28;20925;-56
2022/05/01 06:48:44;;;;;;;16.73;15.03;;;10.30;1.00;;;;;;5078506;28;20518;-58
2022/05/01 06:51:15;;;;;;;16.20;14.50;;;10.50;1.00;;;;;;5090732;28;20497;-58
2022/05/01 06:53:44;;;;;;;16.00;14.27;;;10.80;99.90;;;;;;5079518;28;20473;-58
2022/05/01 06:56:18;;;;;;;16.67;14.70;;;10.90;99.90;;;;;;5079304;28;20525;-58
2022/05/01 06:58:48;;;;;;;16.93;15.13;;;11.00;99.90;;;;;;5089920;28;20495;-59
2022/05/01 07:01:18;;;;;;;16.30;14.60;;;11.30;99.90;;;;;;5084372;28;20532;-59
2022/05/01 07:03:55;;;;;;;17.10;15.40;;;11.50;99.90;;;;;;5080018;28;20546;-58
2022/05/01 07:06:22;;;;;;;15.90;14.33;;;11.90;99.90;;;;;;5090757;28;20512;-59
2022/05/01 07:08:53;;;;;;;15.93;14.27;;;12.30;99.90;;;;;;5076710;28;20508;-58
2022/05/01 07:11:23;;;;;;;16.00;13.70;;;12.70;99.90;;;;;;5078159;28;20889;-58
2022/05/01 07:13:53;;;;;;;17.10;14.43;;;13.20;99.90;;;;;;5079575;28;20493;-56
2022/05/01 07:16:22;;;;;;;14.77;13.27;;;13.40;99.90;;;;;;5079447;28;20843;-59
2022/05/01 07:18:48;;;;;;;14.97;13.47;;;13.30;99.90;;;;;;5081692;28;20473;-59
2022/05/01 07:21:16;;;;;;;14.70;13.33;;;13.30;99.90;;;;;;5080002;28;20551;-58
2022/05/01 07:23:47;;;;;;;15.93;14.43;;;13.60;99.90;;;;;;5079356;28;20807;-58
2022/05/01 07:26:14;;;;;;;15.17;13.67;;;13.70;99.90;;;;;;5078182;28;20917;-59
2022/05/01 07:28:55;;;;;;;16.40;14.90;;;13.90;99.90;;;;;;5079082;28;20489;-57
2022/05/01 07:31:22;;;;;;;15.83;13.63;;;14.20;99.90;;;;;;5078348;28;20842;-59
2022/05/01 07:36:40;;;;;;;13.07;11.50;;;14.30;99.90;;;;;;5086393;28;20448;-60
2022/05/01 07:39:10;;;;;;;12.90;11.70;;;14.10;99.90;;;;;;5080272;28;20485;-59
2022/05/01 07:41:41;;;;;;;12.03;10.93;;;14.10;99.90;;;;;;5079021;28;20586;-60
2022/05/01 07:44:11;;;;;;;12.20;11.10;;;14.30;99.90;;;;;;5078848;28;20515;-59
2022/05/01 07:46:38;;;;;;;14.03;12.63;;;14.50;99.90;;;;;;5078381;28;20548;-60
2022/05/01 07:49:08;;;;;;;13.43;11.80;;;15.10;99.90;;;;;;5086413;28;20759;-59
2022/05/01 07:51:35;;;;;;;13.63;12.37;;;15.50;99.90;;;;;;5078898;28;20520;-60
2022/05/01 07:54:04;;;;;;;13.10;11.70;;;15.60;99.90;;;;;;5078420;28;20475;-60
2022/05/01 07:56:37;;;;;;;12.97;11.87;;;15.60;99.90;;;;;;5066455;28;20511;-60
2022/05/01 07:59:12;;;;;;;11.67;10.50;;;15.80;99.90;;;;;;5078117;28;20489;-59
2022/05/01 08:01:45;;;;;;;12.00;11.00;;;16.50;99.90;;;;;;5069746;28;20786;-59
2022/05/01 08:04:30;;;;;;;12.00;10.93;;;16.70;99.90;;;;;;5077274;28;20949;-60
2022/05/01 08:07:05;;;;;;;13.20;9.90;;;17.00;99.90;;;;;;5077805;28;20746;-60
2022/05/01 08:09:32;;;;;;;12.27;10.97;;;17.10;99.90;;;;;;5078687;28;20464;-60
2022/05/01 08:12:02;;;;;;;10.13;9.13;;;17.60;99.90;;;;;;5077632;28;20492;-60
2022/05/01 08:14:32;;;;;;;13.70;9.77;;;17.60;99.90;;;;;;5078662;28;20545;-60
2022/05/01 08:17:19;;;;;;;9.67;8.77;;;17.30;99.90;;;;;;5078140;28;20465;-61
2022/05/01 08:22:44;;;;;;;9.90;9.10;;;16.50;99.90;;;;;;5076922;28;20484;-59
2022/05/01 08:25:16;;;;;;;10.20;9.40;;;16.40;99.90;;;;;;5078479;28;20862;-60
2022/05/01 08:27:43;;;;;;;9.20;8.40;;;15.60;99.90;;;;;;5076994;28;20516;-60
2022/05/01 08:30:11;;;;;;;8.80;8.00;;;15.70;99.90;;;;;;5077437;28;20500;-60
2022/05/01 08:32:41;;;;;;;10.43;9.53;;;15.80;99.90;;;;;;5077192;28;20552;-59
2022/05/01 08:35:09;;;;;;;10.50;9.47;;;15.60;99.90;;;;;;5078224;28;20496;-60
2022/05/01 08:37:35;;;;;;;9.67;8.77;;;15.60;99.90;;;;;;5077678;28;20540;-60
2022/05/01 08:40:02;;;;;;;10.20;9.30;;;16.00;99.90;;;;;;5076600;28;20548;-60
2022/05/01 08:42:36;;;;;;;10.50;9.50;;;16.40;99.90;;;;;;5076892;28;20579;-60
2022/05/01 08:45:03;;;;;;;10.40;9.40;;;16.40;99.90;;;;;;5075954;28;20465;-60
2022/05/01 08:47:40;;;;;;;9.93;8.93;;;17.10;99.90;;;;;;5076868;28;20462;-59
2022/05/01 08:50:10;;;;;;;9.43;8.47;;;18.20;99.90;;;;;;5076265;28;20944;-59
2022/05/01 08:52:41;;;;;;;9.03;8.23;;;18.90;99.90;;;;;;5076669;28;20461;-60
2022/05/01 08:55:16;;;;;;;8.07;7.47;;;18.80;99.90;;;;;;5076112;28;20561;-61
2022/05/01 08:57:44;;;;;;;8.40;7.70;;;17.80;99.90;;;;;;5073844;28;20457;-61
2022/05/01 09:00:18;;;;;;;8.27;7.47;;;17.20;99.90;;;;;;5076423;28;20489;-61
2022/05/01 09:02:45;;;;;;;8.03;7.33;;;17.00;99.90;;;;;;5076352;28;20525;-61
2022/05/01 09:05:14;;;;;;;9.93;7.70;;;16.80;99.90;;;;;;5075229;28;20822;-60
2022/05/01 09:07:43;;;;;;;7.40;6.80;;;16.80;99.90;;;;;;5075588;28;20454;-60
2022/05/01 09:10:10;;;;;;;7.63;7.07;;;17.20;99.90;;;;;;5074496;28;20474;-61
2022/05/01 09:15:37;;;;;;;9.57;6.73;;;17.00;99.90;;;;;;5075710;28;20792;-60
2022/05/01 09:18:06;;;;;;;8.40;7.60;;;16.80;99.90;;;;;;5077024;28;20496;-60
2022/05/01 09:20:57;;;;;;;8.10;7.37;;;16.50;99.90;;;;;;5075262;28;20540;-60
2022/05/01 09:23:37;;;;;;;8.73;7.90;;;16.40;99.90;;;;;;5073110;28;20524;-60
2022/05/01 09:26:04;;;;;;;8.40;7.53;;;16.30;99.90;;;;;;5074755;28;20461;-60
2022/05/01 09:28:47;;;;;;;7.63;6.93;;;15.90;99.90;;;;;;5075240;28;20556;-60
2022/05/01 09:31:14;;;;;;;7.87;7.17;;;15.90;99.90;;;;;;5075174;28;20472;-59
2022/05/01 09:33:41;;;;;;;10.03;8.13;;;15.90;99.90;;;;;;5074143;28;20541;-60
2022/05/01 09:36:11;;;;;;;7.73;7.03;;;15.90;99.90;;;;;;5076482;28;20528;-60
2022/05/01 09:38:38;;;;;;;7.53;6.93;;;16.00;99.90;;;;;;5076961;28;20493;-59
2022/05/01 09:41:17;;;;;;;10.23;6.70;;;15.70;99.90;;;;;;5074641;28;20545;-59
2022/05/01 09:43:46;;;;;;;9.07;8.00;;;15.60;99.90;;;;;;5075011;28;20714;-59
2022/05/01 09:46:21;;;;;;;9.07;8.17;;;15.70;99.90;;;;;;5075004;28;20462;-60
2022/05/01 09:49:01;;;;;;;8.27;7.57;;;15.60;99.90;;;;;;5076479;28;20559;-60
2022/05/01 09:51:34;;;;;;;12.37;8.30;;;15.50;99.90;;;;;;5075759;28;20465;-59
2022/05/01 09:54:07;;;;;;;8.83;8.13;;;15.40;99.90;;;;;;5076330;28;20548;-60
2022/05/01 09:56:48;;;;;;;10.37;8.13;;;15.40;99.90;;;;;;5074783;28;20457;-59
2022/05/01 09:59:21;;;;;;;8.97;8.07;;;15.30;99.90;;;;;;5076937;28;20461;-60
2022/05/01 10:02:00;;;;;;;8.23;7.40;;;15.00;99.90;;;;;;5076006;28;20504;-60
2022/05/01 10:04:27;;;;;;;10.03;8.27;;;14.70;99.90;;;;;;5076616;28;20548;-60
2022/05/01 10:07:01;;;;;;;8.67;7.63;;;14.80;99.90;;;;;;5076261;28;20925;-60
2022/05/01 10:09:30;;;;;;;8.07;7.37;;;14.90;99.90;;;;;;5076656;28;20539;-60
2022/05/01 10:11:58;;;;;;;9.83;8.40;;;14.90;99.90;;;;;;5075325;28;20514;-59
2022/05/01 10:14:29;;;;;;;8.23;7.47;;;14.80;99.90;;;;;;5075040;28;20692;-60
2022/05/01 10:17:06;;;;;;;7.50;6.80;;;15.10;99.90;;;;;;5076068;28;20484;-59
2022/05/01 10:19:36;;;;;;;8.10;7.30;;;15.30;99.90;;;;;;5076301;28;20465;-60
2022/05/01 10:22:06;;;;;;;8.17;7.47;;;15.50;99.90;;;;;;5079733;28;20580;-60
2022/05/01 10:24:37;;;;;;;7.90;7.20;;;15.30;99.90;;;;;;5079695;28;20461;-60
2022/05/01 10:27:13;;;;;;;9.10;8.30;;;15.40;99.90;;;;;;5077288;28;20525;-59
2022/05/01 10:32:21;;;;;;;10.40;9.30;;;15.60;99.90;;;;;;5072607;28;20596;-59
2022/05/01 10:33:10;;;;;;;9.33;8.10;;;15.50;99.90;;;;;;5069193;28;20460;-60
2022/05/01 10:36:18;;;;;;;12.80;8.50;;;15.70;99.90;;;;;;5068795;28;20464;-61
2022/05/01 10:38:57;;;;;;;8.93;8.00;;;16.00;99.90;;;;;;5070865;28;20465;-60
2022/05/01 10:41:40;;;;;;;9.10;8.30;;;16.30;99.90;;;;;;5066583;28;20516;-61
2022/05/01 10:44:07;;;;;;;12.00;9.50;;;16.90;99.90;;;;;;5073351;28;20497;-60
2022/05/01 10:46:35;;;;;;;9.30;8.50;;;17.00;99.90;;;;;;5068844;28;20556;-61
2022/05/01 10:49:06;;;;;;;11.90;10.70;;;17.10;99.90;;;;;;5071137;28;20560;-60
2022/05/01 10:51:52;;;;;;;10.50;9.70;;;16.50;99.90;;;;;;5071352;28;20472;-61
2022/05/01 10:54:37;;;;;;;10.87;9.90;;;16.50;99.90;;;;;;5053311;28;20952;-61
2022/05/01 10:57:14;;;;;;;11.10;10.20;;;16.70;99.90;;;;;;5067714;28;20894;-61
2022/05/01 10:59:49;;;;;;;11.23;10.20;;;17.30;99.90;;;;;;5071869;28;20550;-61
2022/05/01 11:02:44;;;;;;;11.43;10.40;;;17.40;99.90;;;;;;5071306;28;20496;-61
2022/05/01 11:05:44;;;;;;;13.10;11.90;;;16.70;99.90;;;;;;5056130;28;20480;-61
2022/05/01 11:08:16;;;;;;;10.87;9.87;;;15.90;99.90;;;;;;5057322;28;20477;-60
2022/05/01 11:11:02;;;;;;;12.30;11.17;;;15.30;99.90;;;;;;5071937;28;20886;-60
2022/05/01 11:13:31;;;;;;;13.40;12.17;;;15.30;99.90;;;;;;5072400;28;20485;-60
2022/05/01 11:15:59;;;;;;;11.07;10.27;;;15.30;99.90;;;;;;5074272;28;20491;-61
2022/05/01 11:18:30;;;;;;;11.37;10.27;;;15.20;99.90;;;;;;5067315;28;20905;-60
2022/05/01 11:21:23;;;;;;;10.40;9.50;;;15.00;99.90;;;;;;5068407;28;20564;-60
2022/05/01 11:24:02;;;;;;;12.43;11.27;;;15.00;99.90;;;;;;5071244;28;20563;-60
2022/05/01 11:26:38;;;;;;;12.00;10.37;;;15.00;99.90;;;;;;5078416;28;20538;-60
2022/05/01 11:29:10;;;;;;;11.93;10.83;;;15.50;99.90;;;;;;5079723;28;20496;-61
2022/05/01 11:31:55;;;;;;;12.53;11.43;;;15.30;99.90;;;;;;5077813;28;20468;-61
2022/05/01 11:34:34;;;;;;;11.57;10.57;;;16.00;99.90;;;;;;5076037;28;20458;-61
2022/05/01 11:37:04;;;;;;;11.80;10.60;;;16.20;99.90;;;;;;5068304;28;20839;-61
2022/05/01 11:40:08;;;;;;;10.60;9.60;;;16.10;99.90;;;;;;5070982;28;20500;-61
2022/05/01 11:42:38;;;;;;;9.43;8.63;;;16.50;99.90;;;;;;5070223;28;20497;-61
2022/05/01 11:45:08;;;;;;;10.17;9.23;;;17.00;99.90;;;;;;5068896;28;20520;-61
2022/05/01 11:47:40;;;;;;;10.60;9.50;;;16.60;99.90;;;;;;5068060;28;20477;-61
2022/05/01 11:50:18;;;;;;;9.43;8.63;;;16.30;99.90;;;;;;5066187;28;20473;-61
2022/05/01 11:52:53;;;;;;;12.17;10.07;;;16.70;99.90;;;;;;5063997;28;20757;-61
2022/05/01 12:04:29;;;;;;;10.53;9.60;;;17.90;99.90;;;;;;5064642;28;21807;-61
2022/05/01 12:07:18;;;;;;;9.83;8.97;;;17.80;99.90;;;;;;5065747;28;20501;-61
2022/05/01 12:09:51;;;;;;;9.30;8.50;;;18.00;99.90;;;;;;5072290;28;20740;-61
2022/05/01 12:12:20;;;;;;;9.83;9.03;;;17.30;99.90;;;;;;5066770;28;20969;-61
2022/05/01 12:14:49;;;;;;;10.00;9.20;;;17.40;99.90;;;;;;5066682;28;20462;-61
2022/05/01 12:17:21;;;;;;;10.20;9.30;;;17.20;99.90;;;;;;5065989;28;20908;-61
2022/05/01 12:19:54;;;;;;;9.57;8.77;;;17.20;99.90;;;;;;5066947;28;20465;-60
2022/05/01 12:22:23;;;;;;;10.53;9.63;;;17.40;99.90;;;;;;5073278;28;20461;-61
2022/05/01 12:24:59;;;;;;;10.63;9.57;;;17.10;99.90;;;;;;5070366;28;20549;-61
2022/05/01 12:27:34;;;;;;;12.63;9.43;;;16.00;99.90;;;;;;5075659;28;20885;-60
2022/05/01 12:30:13;;;;;;;9.60;8.70;;;15.80;99.90;;;;;;5074118;28;20510;-60
2022/05/01 12:32:53;;;;;;;8.90;8.20;;;15.90;99.90;;;;;;5064470;28;20466;-60
2022/05/01 12:35:21;;;;;;;9.57;8.63;;;15.80;99.90;;;;;;5076714;28;20465;-60
2022/05/01 12:37:53;;;;;;;10.10;9.27;;;15.90;99.90;;;;;;5075253;28;20506;-59
2022/05/01 12:45:53;;;;;;;9.03;8.33;;;17.80;99.90;;;;;;5068370;28;20437;-60
2022/05/01 12:48:21;;;;;;;13.87;9.20;;;18.00;99.90;;;;;;5076671;28;20466;-60
2022/05/01 12:50:56;;;;;;;8.83;8.13;;;17.90;99.90;;;;;;5076375;28;20465;-61
2022/05/01 12:53:27;;;;;;;10.00;9.10;;;18.80;99.90;;;;;;5074048;28;20555;-61
2022/05/01 12:55:55;;;;;;;9.70;8.80;;;19.00;99.90;;;;;;5066075;28;20501;-61
2022/05/01 12:58:34;;;;;;;9.60;8.80;;;18.90;99.90;;;;;;5075754;28;20548;-61
2022/05/01 13:01:09;;;;;;;9.73;8.93;;;18.50;99.90;;;;;;5076403;28;20544;-60
2022/05/01 13:03:37;;;;;;;8.97;8.27;;;18.50;99.90;;;;;;5072215;28;20579;-60
2022/05/01 13:06:11;;;;;;;9.80;9.00;;;18.20;99.90;;;;;;5071341;28;20462;-60
2022/05/01 13:08:43;;;;;;;9.10;8.37;;;18.10;99.90;;;;;;5071257;28;20472;-60
2022/05/01 13:11:23;;;;;;;10.60;9.47;;;17.70;99.90;;;;;;5075929;28;20501;-61
2022/05/01 13:13:52;;;;;;;9.97;8.97;;;16.70;99.90;;;;;;5074514;28;20550;-60
2022/05/01 13:16:25;;;;;;;9.90;9.10;;;16.20;99.90;;;;;;5068788;28;20470;-61
2022/05/01 13:18:54;;;;;;;9.40;8.40;;;16.20;99.90;;;;;;5071886;28;20462;-60
2022/05/01 13:21:25;;;;;;;9.67;8.87;;;16.60;99.90;;;;;;5068713;28;20465;-60
2022/05/01 13:23:55;;;;;;;9.93;9.13;;;17.20;99.90;;;;;;5068099;28;20493;-60
2022/05/01 13:26:28;;;;;;;9.80;9.00;;;17.60;99.90;;;;;;5070110;28;20565;-61
2022/05/01 13:28:55;;;;;;;9.60;8.80;;;17.50;99.90;;;;;;5064500;28;20539;-60
2022/05/01 13:31:24;;;;;;;8.03;7.17;;;17.10;99.90;;;;;;5073231;28;21627;-61
2022/05/01 13:33:51;;;;;;;9.30;8.40;;;17.90;99.90;;;;;;5070590;28;20849;-60
2022/05/01 13:36:21;;;;;;;10.23;9.37;;;17.80;99.90;;;;;;5068451;28;20497;-61
2022/05/01 13:38:51;;;;;;;9.40;8.70;;;17.20;99.90;;;;;;5070532;28;20936;-60
2022/05/01 13:46:52;;;;;;;9.93;8.53;;;16.40;99.90;;;;;;5070659;28;20901;-60
2022/05/01 13:49:31;;;;;;;10.90;9.87;;;16.40;99.90;;;;;;5075702;28;20480;-60
2022/05/01 13:51:58;;;;;;;11.47;9.17;;;16.10;99.90;;;;;;5071617;28;20559;-60